Time;durP1;ratioP1;P1;durP2;ratioP2;P2;SDS_P1;SDS_P2;PMS_P1;PMS_P2;Temp;Humidity;BMP_temperature;BMP_pressure;BME280_temperature;BME280_humidity;BME280_pressure;Samples;Min_cycle;Max_cycle;Signal;HPM_P1;HPM_P2
2023/06/28 00:00:48;;;;;;;;;;;;;;;20.89;57.63;100237.66;5072663;28;5448;-77
2023/06/28 00:03:14;;;;;;;;;;;;;;;20.87;57.57;100237.13;5058080;28;4901;-76
2023/06/28 00:05:41;;;;;;;;;;;;;;;20.86;57.54;100239.03;5041902;28;5426;-75
2023/06/28 00:08:08;;;;;;;;;;;;;;;20.86;57.78;100246.44;5046022;28;4959;-76
2023/06/28 00:10:34;;;;;;;;;;;;;;;20.84;57.50;100238.53;5041522;28;4803;-76
2023/06/28 00:13:01;;;;;;;;;;;;;;;20.83;57.61;100247.84;5056168;28;4844;-77
2023/06/28 00:15:27;;;;;;;;;;;;;;;20.82;57.52;100248.13;5044312;28;4802;-76
2023/06/28 00:17:54;;;;;;;;;;;;;;;20.81;57.34;100249.25;5042469;28;5215;-76
2023/06/28 00:20:20;;;;;;;;;;;;;;;20.80;57.36;100240.22;5043267;28;5236;-75
2023/06/28 00:22:47;;;;;;;;;;;;;;;20.81;57.63;100249.25;5039828;28;4691;-75
2023/06/28 00:25:13;;;;;;;;;;;;;;;20.79;57.58;100249.53;5044184;28;5300;-76
2023/06/28 00:27:40;;;;;;;;;;;;;;;20.78;57.57;100244.38;5039659;28;4636;-76
2023/06/28 00:30:06;;;;;;;;;;;;;;;20.77;57.67;100246.28;5042982;28;5467;-76
2023/06/28 00:32:33;;;;;;;;;;;;;;;20.75;57.59;100243.03;5071928;28;5156;-75
2023/06/28 00:34:59;;;;;;;;;;;;;;;20.76;57.61;100243.84;5057351;28;4777;-76
2023/06/28 00:37:26;;;;;;;;;;;;;;;20.75;57.33;100255.91;5041386;28;4715;-77
2023/06/28 00:39:54;;;;;;;;;;;;;;;20.72;57.43;100260.03;5057332;28;4459;-78
2023/06/28 00:42:21;;;;;;;;;;;;;;;20.73;57.52;100266.31;5040105;28;4764;-76
2023/06/28 00:44:47;;;;;;;;;;;;;;;20.72;57.25;100267.44;5041735;28;4717;-77
2023/06/28 00:47:14;;;;;;;;;;;;;;;20.71;57.34;100282.25;5042835;28;5483;-76
2023/06/28 00:49:41;;;;;;;;;;;;;;;20.68;57.51;100280.91;5042488;28;5307;-76
2023/06/28 00:52:07;;;;;;;;;;;;;;;20.67;57.50;100281.19;5058110;28;5414;-76
2023/06/28 00:54:34;;;;;;;;;;;;;;;20.66;57.33;100277.63;5059548;28;4784;-77
2023/06/28 00:57:00;;;;;;;;;;;;;;;20.66;57.28;100279.56;5040420;28;4671;-76
2023/06/28 00:59:27;;;;;;;;;;;;;;;20.65;57.45;100278.75;5041155;28;5463;-78
2023/06/28 01:01:54;;;;;;;;;;;;;;;20.62;57.34;100280.16;5043494;28;5283;-77
2023/06/28 01:04:21;;;;;;;;;;;;;;;20.62;57.17;100273.88;5038502;28;4699;-76
2023/06/28 01:06:51;;;;;;;;;;;;;;;20.61;57.08;100283.97;5055047;28;4584;-76
2023/06/28 01:09:18;;;;;;;;;;;;;;;20.60;57.28;100281.53;5035693;28;4732;-77
2023/06/28 01:11:44;;;;;;;;;;;;;;;20.61;57.24;100274.97;5041479;28;4260;-76
2023/06/28 01:14:11;;;;;;;;;;;;;;;20.59;57.34;100279.94;5040428;28;5417;-78
2023/06/28 01:16:37;;;;;;;;;;;;;;;20.59;57.40;100285.41;5055927;28;4491;-78
2023/06/28 01:19:04;;;;;;;;;;;;;;;20.56;57.40;100281.31;5040264;28;4507;-77
2023/06/28 01:21:31;;;;;;;;;;;;;;;20.64;57.20;100279.84;5039142;28;4860;-77
2023/06/28 01:24:00;;;;;;;;;;;;;;;20.66;56.65;100279.56;5043373;28;4651;-75
2023/06/28 01:26:26;;;;;;;;;;;;;;;20.57;57.02;100279.41;5039559;28;5355;-78
2023/06/28 01:28:53;;;;;;;;;;;;;;;20.65;56.69;100281.50;5041177;28;4489;-77
2023/06/28 01:31:19;;;;;;;;;;;;;;;20.75;56.31;100281.34;5038660;28;5268;-77
2023/06/28 01:33:48;;;;;;;;;;;;;;;20.63;56.69;100279.03;5041776;28;4518;-76
2023/06/28 01:36:14;;;;;;;;;;;;;;;20.80;56.44;100285.94;5040591;28;5556;-76
2023/06/28 01:38:41;;;;;;;;;;;;;;;20.79;56.07;100278.81;5041822;28;5305;-75
2023/06/28 01:41:07;;;;;;;;;;;;;;;21.20;55.11;100278.25;5045221;28;5261;-75
2023/06/28 01:43:34;;;;;;;;;;;;;;;21.13;55.01;100281.34;5054700;28;4728;-73
2023/06/28 01:46:00;;;;;;;;;;;;;;;20.82;56.10;100283.72;5043809;28;5265;-76
2023/06/28 01:48:27;;;;;;;;;;;;;;;21.25;54.58;100278.16;5044081;28;4804;-76
2023/06/28 01:50:53;;;;;;;;;;;;;;;21.05;54.98;100276.53;5061960;28;5428;-77
2023/06/28 01:53:20;;;;;;;;;;;;;;;21.16;54.91;100271.75;5044651;28;5364;-77
2023/06/28 01:55:47;;;;;;;;;;;;;;;21.20;54.44;100281.78;5046231;28;4613;-77
2023/06/28 01:58:13;;;;;;;;;;;;;;;21.15;54.70;100289.25;5043081;28;4637;-78
2023/06/28 02:00:40;;;;;;;;;;;;;;;21.21;54.25;100280.69;5045046;28;4721;-76
2023/06/28 02:03:06;;;;;;;;;;;;;;;21.36;54.02;100287.06;5043129;28;5271;-77
2023/06/28 02:05:33;;;;;;;;;;;;;;;21.13;54.71;100292.31;5046360;28;5318;-75
2023/06/28 02:08:01;;;;;;;;;;;;;;;21.35;54.00;100288.16;5042050;28;5206;-76
2023/06/28 02:10:27;;;;;;;;;;;;;;;21.22;54.21;100285.06;5046477;28;5070;-76
2023/06/28 02:12:54;;;;;;;;;;;;;;;21.05;54.58;100290.22;5040865;28;4906;-75
2023/06/28 02:15:21;;;;;;;;;;;;;;;21.17;54.41;100285.13;5040329;28;5318;-76
2023/06/28 02:17:48;;;;;;;;;;;;;;;21.05;54.33;100291.03;5044568;28;4716;-77
2023/06/28 02:20:15;;;;;;;;;;;;;;;21.29;53.83;100284.66;5055944;28;5260;-79
2023/06/28 02:22:41;;;;;;;;;;;;;;;21.23;53.82;100285.84;5044674;28;4656;-77
2023/06/28 02:25:08;;;;;;;;;;;;;;;21.39;53.40;100292.78;5043017;28;5257;-76
2023/06/28 02:27:34;;;;;;;;;;;;;;;21.17;54.03;100290.59;5045709;28;4629;-77
2023/06/28 02:30:01;;;;;;;;;;;;;;;21.18;53.90;100283.19;5057929;28;4765;-76
2023/06/28 02:32:30;;;;;;;;;;;;;;;21.21;54.01;100283.44;5043684;28;4571;-76
2023/06/28 02:34:57;;;;;;;;;;;;;;;21.22;53.59;100287.78;5040086;28;5089;-77
2023/06/28 02:37:24;;;;;;;;;;;;;;;21.19;53.70;100287.56;5045853;28;4747;-77
2023/06/28 02:39:50;;;;;;;;;;;;;;;21.19;53.76;100287.56;5044250;28;4716;-76
2023/06/28 02:42:17;;;;;;;;;;;;;;;21.16;53.96;100286.25;5044003;28;5411;-77
2023/06/28 02:44:43;;;;;;;;;;;;;;;21.13;53.79;100288.75;5044923;28;4713;-77
2023/06/28 02:47:10;;;;;;;;;;;;;;;20.98;54.28;100284.31;5059349;28;5338;-75
2023/06/28 02:49:37;;;;;;;;;;;;;;;21.15;53.65;100287.38;5043386;28;5587;-74
2023/06/28 02:52:03;;;;;;;;;;;;;;;20.97;54.25;100296.38;5058244;28;4705;-78
2023/06/28 02:54:30;;;;;;;;;;;;;;;21.05;53.89;100296.53;5043457;28;5415;-76
2023/06/28 02:56:56;;;;;;;;;;;;;;;20.99;54.26;100299.63;5042446;28;4564;-77
2023/06/28 02:59:23;;;;;;;;;;;;;;;20.81;54.39;100293.84;5045743;28;4499;-78
2023/06/28 03:01:49;;;;;;;;;;;;;;;20.92;54.39;100294.53;5042455;28;4749;-76
2023/06/28 03:04:16;;;;;;;;;;;;;;;20.77;54.67;100292.00;5043049;28;4602;-76
2023/06/28 03:06:42;;;;;;;;;;;;;;;20.78;54.54;100297.16;5043856;28;4772;-78
2023/06/28 03:09:09;;;;;;;;;;;;;;;20.78;54.77;100290.88;5044926;28;4562;-77
2023/06/28 03:11:35;;;;;;;;;;;;;;;20.82;54.46;100289.19;5042421;28;4653;-77
2023/06/28 03:14:02;;;;;;;;;;;;;;;20.88;54.34;100293.47;5044969;28;4546;-79
2023/06/28 03:16:28;;;;;;;;;;;;;;;20.68;54.60;100302.78;5040689;28;5097;-77
2023/06/28 03:18:55;;;;;;;;;;;;;;;20.86;54.30;100309.41;5043160;28;5326;-77
2023/06/28 03:21:22;;;;;;;;;;;;;;;20.74;54.34;100307.09;5043306;28;4673;-76
2023/06/28 03:23:48;;;;;;;;;;;;;;;20.82;54.40;100313.81;5043943;28;5261;-76
2023/06/28 03:26:15;;;;;;;;;;;;;;;20.86;54.04;100312.13;5042413;28;4856;-76
2023/06/28 03:28:41;;;;;;;;;;;;;;;20.72;54.35;100317.50;5044505;28;5187;-77
2023/06/28 03:31:08;;;;;;;;;;;;;;;20.62;54.68;100317.66;5041303;28;5262;-75
2023/06/28 03:33:34;;;;;;;;;;;;;;;20.67;54.33;100316.75;5043847;28;4678;-77
2023/06/28 03:36:01;;;;;;;;;;;;;;;20.51;54.84;100322.38;5041649;28;4545;-75
2023/06/28 03:38:27;;;;;;;;;;;;;;;20.50;54.85;100325.41;5045016;28;4711;-75
2023/06/28 03:40:54;;;;;;;;;;;;;;;20.35;55.09;100327.22;5058194;28;4626;-73
2023/06/28 03:43:20;;;;;;;;;;;;;;;20.57;54.54;100334.09;5041377;28;5363;-77
2023/06/28 03:45:47;;;;;;;;;;;;;;;20.63;54.52;100325.53;5055066;28;4642;-74
2023/06/28 03:48:13;;;;;;;;;;;;;;;20.47;54.77;100334.19;5041408;28;4769;-73
2023/06/28 03:50:40;;;;;;;;;;;;;;;20.37;55.07;100333.19;5040049;28;5202;-76
2023/06/28 03:53:07;;;;;;;;;;;;;;;20.56;54.57;100332.47;5040827;28;4715;-73
2023/06/28 03:55:33;;;;;;;;;;;;;;;20.56;54.52;100336.03;5044670;28;5233;-75
2023/06/28 03:58:00;;;;;;;;;;;;;;;20.53;54.40;100333.03;5039958;28;5103;-76
2023/06/28 04:00:26;;;;;;;;;;;;;;;20.47;54.84;100337.75;5038906;28;4521;-75
2023/06/28 04:02:53;;;;;;;;;;;;;;;20.38;54.58;100334.84;5040868;28;4838;-75
2023/06/28 04:05:19;;;;;;;;;;;;;;;20.47;54.61;100325.97;5058866;28;4789;-74
2023/06/28 04:07:58;;;;;;;;;;;;;;;20.51;54.23;100324.31;5040303;28;4593;-78
2023/06/28 04:10:24;;;;;;;;;;;;;;;20.50;54.43;100339.91;5042259;28;4561;-76
2023/06/28 04:13:16;;;;;;;;;;;;;;;20.07;54.45;100281.59;5041654;28;4777;-75
2023/06/28 04:15:43;;;;;;;;;;;;;;;20.41;54.31;100337.00;5039479;28;5021;-73
2023/06/28 04:18:09;;;;;;;;;;;;;;;20.50;54.03;100336.34;5056393;28;4793;-76
2023/06/28 04:20:36;;;;;;;;;;;;;;;20.50;54.07;100333.59;5042770;28;5548;-76
2023/06/28 04:23:02;;;;;;;;;;;;;;;20.43;54.52;100340.22;5041511;28;5301;-73
2023/06/28 04:25:29;;;;;;;;;;;;;;;20.31;54.56;100336.28;5058478;28;4553;-75
2023/06/28 04:27:55;;;;;;;;;;;;;;;20.19;55.07;100342.97;5042698;28;5227;-77
2023/06/28 04:30:24;;;;;;;;;;;;;;;20.34;54.53;100336.50;5042325;28;4656;-78
2023/06/28 04:32:51;;;;;;;;;;;;;;;20.41;54.17;100336.16;5038906;28;5402;-73
2023/06/28 04:35:21;;;;;;;;;;;;;;;20.39;54.29;100333.72;5042383;28;5324;-74
2023/06/28 04:37:47;;;;;;;;;;;;;;;20.30;54.69;100330.00;5041007;28;5386;-74
2023/06/28 04:40:15;;;;;;;;;;;;;;;20.38;54.12;100329.38;5043186;28;4513;-77
2023/06/28 04:42:42;;;;;;;;;;;;;;;20.44;53.99;100327.38;5042489;28;5219;-75
2023/06/28 04:45:11;;;;;;;;;;;;;;;20.45;54.15;100331.75;5040577;28;4638;-77
2023/06/28 04:47:38;;;;;;;;;;;;;;;20.18;54.83;100324.13;5042074;28;4527;-75
2023/06/28 04:50:04;;;;;;;;;;;;;;;20.16;54.70;100324.41;5041205;28;4588;-78
2023/06/28 04:52:31;;;;;;;;;;;;;;;20.47;53.94;100325.97;5059540;28;4522;-74
2023/06/28 04:54:57;;;;;;;;;;;;;;;20.45;53.90;100323.53;5037193;28;5204;-77
2023/06/28 04:57:24;;;;;;;;;;;;;;;20.41;53.89;100323.31;5073212;28;4623;-77
2023/06/28 04:59:51;;;;;;;;;;;;;;;20.47;53.70;100325.97;5039945;28;4669;-78
2023/06/28 05:02:17;;;;;;;;;;;;;;;20.25;54.16;100329.25;5039158;28;4620;-77
2023/06/28 05:04:45;;;;;;;;;;;;;;;20.32;54.15;100333.25;5040298;28;5438;-77
2023/06/28 05:07:11;;;;;;;;;;;;;;;20.25;54.42;100338.25;5045069;28;4972;-78
2023/06/28 05:09:38;;;;;;;;;;;;;;;20.43;53.70;100340.22;5040599;28;4710;-77
2023/06/28 05:12:04;;;;;;;;;;;;;;;20.40;53.82;100338.09;5041068;28;5573;-74
2023/06/28 05:14:31;;;;;;;;;;;;;;;20.38;53.78;100339.47;5041488;28;5266;-74
2023/06/28 05:16:58;;;;;;;;;;;;;;;20.29;54.00;100333.00;5043670;28;4632;-75
2023/06/28 05:19:24;;;;;;;;;;;;;;;20.28;54.20;100332.19;5058604;28;5204;-76
2023/06/28 05:21:51;;;;;;;;;;;;;;;20.40;53.85;100331.81;5060468;28;4660;-75
2023/06/28 05:24:17;;;;;;;;;;;;;;;20.39;53.89;100338.38;5047062;28;4739;-76
2023/06/28 05:26:44;;;;;;;;;;;;;;;20.41;53.52;100328.78;5043245;28;5328;-77
2023/06/28 05:29:10;;;;;;;;;;;;;;;20.53;53.14;100331.16;5044714;28;4903;-75
2023/06/28 05:31:37;;;;;;;;;;;;;;;20.47;53.60;100331.44;5042302;28;4580;-75
2023/06/28 05:34:03;;;;;;;;;;;;;;;20.52;53.16;100331.41;5045475;28;4577;-77
2023/06/28 05:36:30;;;;;;;;;;;;;;;20.32;53.55;100330.50;5044599;28;4608;-76
2023/06/28 05:38:57;;;;;;;;;;;;;;;20.48;53.16;100335.84;5058773;28;4781;-78
2023/06/28 05:41:23;;;;;;;;;;;;;;;20.42;53.32;100326.88;5045355;28;4722;-76
2023/06/28 05:43:50;;;;;;;;;;;;;;;20.54;53.15;100326.50;5060800;28;4909;-76
2023/06/28 05:46:17;;;;;;;;;;;;;;;20.58;52.75;100322.88;5046132;28;5478;-79
2023/06/28 05:48:45;;;;;;;;;;;;;;;20.52;53.02;100326.75;5042194;28;4729;-76
2023/06/28 05:51:12;;;;;;;;;;;;;;;20.62;52.74;100325.84;5061667;28;5375;-75
2023/06/28 05:53:39;;;;;;;;;;;;;;;20.66;52.59;100326.88;5042333;28;5384;-76
2023/06/28 05:56:05;;;;;;;;;;;;;;;20.51;52.93;100327.84;5040193;28;5177;-79
2023/06/28 05:58:32;;;;;;;;;;;;;;;20.56;52.64;100330.56;5043505;28;4705;-75
2023/06/28 06:00:59;;;;;;;;;;;;;;;20.24;61.36;100333.91;5056210;28;5242;-77
2023/06/28 06:03:25;;;;;;;;;;;;;;;20.24;56.36;100335.81;5042280;28;4820;-75
2023/06/28 06:05:52;;;;;;;;;;;;;;;20.31;54.94;100337.09;5046590;28;4704;-77
2023/06/28 06:08:18;;;;;;;;;;;;;;;20.59;54.09;100338.19;5041245;28;4901;-74
2023/06/28 06:10:45;;;;;;;;;;;;;;;20.79;53.48;100339.84;5057743;28;4757;-76
2023/06/28 06:13:11;;;;;;;;;;;;;;;20.62;53.77;100347.75;5042578;28;5336;-76
2023/06/28 06:15:38;;;;;;;;;;;;;;;20.43;54.25;100340.22;5042486;28;4505;-76
2023/06/28 06:18:04;;;;;;;;;;;;;;;20.55;53.56;100342.59;5044298;28;5089;-77
2023/06/28 06:20:33;;;;;;;;;;;;;;;20.42;54.00;100346.00;5060403;28;5210;-76
2023/06/28 06:23:03;;;;;;;;;;;;;;;20.30;54.48;100337.41;5044177;28;4591;-76
2023/06/28 06:25:30;;;;;;;;;;;;;;;20.16;54.75;100335.34;5055311;28;5210;-75
2023/06/28 06:27:57;;;;;;;;;;;;;;;20.24;54.46;100344.03;5044920;28;4840;-77
2023/06/28 06:30:24;;;;;;;;;;;;;;;20.22;54.22;100347.03;5041045;28;5220;-76
2023/06/28 06:32:51;;;;;;;;;;;;;;;19.93;55.12;100347.84;5040272;28;5140;-76
2023/06/28 06:35:17;;;;;;;;;;;;;;;19.92;55.21;100343.50;5039106;28;5354;-76
2023/06/28 06:37:45;;;;;;;;;;;;;;;19.83;55.09;100350.69;5044612;28;4726;-77
2023/06/28 06:40:12;;;;;;;;;;;;;;;19.83;55.50;100352.59;5039620;28;5372;-78
2023/06/28 06:42:39;;;;;;;;;;;;;;;19.84;55.42;100348.75;5057861;28;5329;-75
2023/06/28 06:45:06;;;;;;;;;;;;;;;19.81;55.42;100346.59;5057184;28;4618;-76
2023/06/28 06:47:32;;;;;;;;;;;;;;;19.73;55.69;100348.00;5045040;28;4852;-75
2023/06/28 06:49:59;;;;;;;;;;;;;;;19.80;55.57;100348.53;5042566;28;4552;-78
2023/06/28 06:52:25;;;;;;;;;;;;;;;19.79;55.55;100357.78;5040633;28;4708;-75
2023/06/28 06:54:52;;;;;;;;;;;;;;;19.75;55.51;100354.03;5042069;28;5339;-77
2023/06/28 06:57:19;;;;;;;;;;;;;;;19.85;55.32;100361.31;5058624;28;5233;-76
2023/06/28 06:59:45;;;;;;;;;;;;;;;19.76;55.48;100354.81;5042326;28;4667;-76
2023/06/28 07:02:12;;;;;;;;;;;;;;;19.78;55.37;100361.63;5043392;28;4658;-77
2023/06/28 07:04:38;;;;;;;;;;;;;;;19.75;55.23;100359.47;5045253;28;5920;-77
2023/06/28 07:07:05;;;;;;;;;;;;;;;19.72;55.44;100360.06;5059151;28;5542;-75
2023/06/28 07:09:31;;;;;;;;;;;;;;;19.74;55.45;100358.66;5046907;28;4711;-76
2023/06/28 07:11:58;;;;;;;;;;;;;;;19.74;55.40;100358.66;5042370;28;5622;-78
2023/06/28 07:14:24;;;;;;;;;;;;;;;19.76;55.05;100361.09;5044611;28;4792;-78
2023/06/28 07:16:51;;;;;;;;;;;;;;;19.73;55.47;100356.22;5059451;28;5501;-77
2023/06/28 07:19:17;;;;;;;;;;;;;;;19.72;55.39;100360.06;5041940;28;4908;-77
2023/06/28 07:21:44;;;;;;;;;;;;;;;19.68;55.53;100359.81;5041592;28;4640;-76
2023/06/28 07:24:11;;;;;;;;;;;;;;;19.66;55.25;100358.47;5057336;28;5227;-76
2023/06/28 07:26:37;;;;;;;;;;;;;;;19.67;55.26;100360.91;5045106;28;4817;-76
2023/06/28 07:29:04;;;;;;;;;;;;;;;19.67;55.26;100363.63;5040877;28;4727;-77
2023/06/28 07:31:30;;;;;;;;;;;;;;;19.67;55.62;100362.81;5043489;28;4544;-76
2023/06/28 07:33:57;;;;;;;;;;;;;;;19.67;55.37;100351.88;5040165;28;4753;-76
2023/06/28 07:36:23;;;;;;;;;;;;;;;19.69;55.46;100358.69;5045925;28;5462;-77
2023/06/28 07:38:50;;;;;;;;;;;;;;;19.71;55.33;100355.69;5041203;28;5332;-77
2023/06/28 07:41:17;;;;;;;;;;;;;;;19.73;55.46;100359.75;5056267;28;4771;-76
2023/06/28 07:43:43;;;;;;;;;;;;;;;19.74;55.18;100355.13;5044474;28;5935;-76
2023/06/28 07:46:10;;;;;;;;;;;;;;;19.37;55.27;100326.41;5040360;28;5255;-76
2023/06/28 07:48:37;;;;;;;;;;;;;;;19.76;55.38;100357.56;5042640;28;4608;-77
2023/06/28 07:51:05;;;;;;;;;;;;;;;19.76;55.28;100357.56;5039914;28;5200;-77
2023/06/28 07:53:31;;;;;;;;;;;;;;;19.76;55.31;100354.81;5042623;28;4526;-76
2023/06/28 07:55:58;;;;;;;;;;;;;;;19.76;55.34;100352.09;5042419;28;5439;-76
2023/06/28 07:58:24;;;;;;;;;;;;;;;19.76;55.26;100352.09;5041678;28;5318;-75
2023/06/28 08:00:51;;;;;;;;;;;;;;;19.77;55.07;100345.56;5045041;28;4637;-77
2023/06/28 08:03:19;;;;;;;;;;;;;;;19.78;55.11;100358.91;5042074;28;5337;-78
2023/06/28 08:05:46;;;;;;;;;;;;;;;19.78;55.30;100353.44;5041197;28;4897;-76
2023/06/28 08:08:12;;;;;;;;;;;;;;;19.81;55.02;100360.25;5042065;28;4786;-75
2023/06/28 08:10:39;;;;;;;;;;;;;;;19.79;55.11;100360.53;5045803;28;5379;-75
2023/06/28 08:13:05;;;;;;;;;;;;;;;19.80;54.88;100364.09;5043022;28;4785;-76
2023/06/28 08:15:36;;;;;;;;;;;;;;;19.81;55.12;100365.72;5044498;28;5321;-77
2023/06/28 08:18:03;;;;;;;;;;;;;;;19.81;54.82;100363.81;5043247;28;4858;-77
2023/06/28 08:20:30;;;;;;;;;;;;;;;19.83;55.04;100358.06;5051880;28;5118;-77
2023/06/28 08:22:56;;;;;;;;;;;;;;;19.83;55.01;100369.81;5043012;28;4661;-76
2023/06/28 08:25:23;;;;;;;;;;;;;;;19.84;55.11;100359.69;5042707;28;4689;-76
2023/06/28 08:27:49;;;;;;;;;;;;;;;19.87;55.18;100359.94;5044605;28;5452;-77
2023/06/28 08:30:16;;;;;;;;;;;;;;;19.90;54.89;100362.09;5041622;28;4852;-76
2023/06/28 08:32:42;;;;;;;;;;;;;;;19.85;54.81;100364.84;5045042;28;4868;-77
2023/06/28 08:35:09;;;;;;;;;;;;;;;19.85;55.07;100364.84;5040762;28;4672;-78
2023/06/28 08:37:35;;;;;;;;;;;;;;;19.86;55.26;100368.41;5045088;28;4658;-77
2023/06/28 08:40:04;;;;;;;;;;;;;;;19.85;55.21;100362.13;5041853;28;5071;-76
2023/06/28 08:42:30;;;;;;;;;;;;;;;19.87;55.24;100370.03;5044711;28;5250;-75
2023/06/28 08:44:57;;;;;;;;;;;;;;;19.87;55.18;100361.84;5041244;28;5406;-75
2023/06/28 08:47:23;;;;;;;;;;;;;;;19.92;55.14;100361.81;5037547;28;4775;-75
2023/06/28 08:49:50;;;;;;;;;;;;;;;19.90;54.82;100364.00;5044064;28;5470;-74
2023/06/28 08:52:16;;;;;;;;;;;;;;;19.93;55.06;100375.16;5046963;28;5312;-76
2023/06/28 08:54:43;;;;;;;;;;;;;;;19.94;54.86;100370.50;5044724;28;4683;-76
2023/06/28 08:57:10;;;;;;;;;;;;;;;19.94;55.09;100373.25;5045915;28;5297;-76
2023/06/28 08:59:36;;;;;;;;;;;;;;;19.93;55.07;100372.44;5027874;28;4753;-77
2023/06/28 09:02:03;;;;;;;;;;;;;;;19.92;55.23;100373.56;5032653;28;5314;-74
2023/06/28 09:04:29;;;;;;;;;;;;;;;19.95;54.81;100370.25;5045947;28;5157;-74
2023/06/28 09:06:56;;;;;;;;;;;;;;;19.97;55.15;100372.69;5029391;28;4381;-75
2023/06/28 09:09:22;;;;;;;;;;;;;;;19.97;55.05;100364.47;5028952;28;4830;-75
2023/06/28 09:11:49;;;;;;;;;;;;;;;19.95;55.21;100369.44;5043145;28;5209;-75
2023/06/28 09:14:15;;;;;;;;;;;;;;;19.97;54.90;100367.22;5044462;28;4567;-76
2023/06/28 09:16:42;;;;;;;;;;;;;;;20.00;54.84;100363.09;5060892;28;4732;-76
2023/06/28 09:19:09;;;;;;;;;;;;;;;19.99;55.20;100369.66;5047376;28;5197;-74
2023/06/28 09:21:35;;;;;;;;;;;;;;;19.99;55.14;100375.94;5047510;28;5294;-76
2023/06/28 09:24:02;;;;;;;;;;;;;;;19.96;55.19;100374.59;5046532;28;5144;-76
2023/06/28 09:26:29;;;;;;;;;;;;;;;19.98;55.07;100377.06;5044763;28;4712;-74
2023/06/28 09:28:55;;;;;;;;;;;;;;;19.98;55.14;100373.53;5043396;28;4778;-77
2023/06/28 09:31:22;;;;;;;;;;;;;;;19.98;55.20;100377.06;5047717;28;4795;-76
2023/06/28 09:33:49;;;;;;;;;;;;;;;19.99;55.26;100380.59;5061138;28;5413;-75
2023/06/28 09:36:15;;;;;;;;;;;;;;;20.02;55.03;100377.28;5046970;28;5349;-76
2023/06/28 09:38:42;;;;;;;;;;;;;;;20.05;54.80;100380.25;5045105;28;4853;-77
2023/06/28 09:41:08;;;;;;;;;;;;;;;20.05;55.18;100382.19;5048005;28;5577;-76
2023/06/28 09:43:35;;;;;;;;;;;;;;;20.01;55.12;100376.47;5059745;28;5001;-77
2023/06/28 09:46:02;;;;;;;;;;;;;;;19.99;55.35;100375.94;5045469;28;5423;-77
2023/06/28 09:48:28;;;;;;;;;;;;;;;20.04;55.08;100370.44;5046331;28;5748;-76
2023/06/28 09:50:56;;;;;;;;;;;;;;;20.03;55.50;100378.91;5059428;28;5513;-77
2023/06/28 09:53:23;;;;;;;;;;;;;;;20.04;55.23;100370.44;5046350;28;4604;-75
2023/06/28 09:55:50;;;;;;;;;;;;;;;20.02;55.42;100375.38;5044469;28;5284;-77
2023/06/28 09:58:17;;;;;;;;;;;;;;;20.03;55.31;100374.28;5042691;28;4573;-75
2023/06/28 10:00:43;;;;;;;;;;;;;;;20.06;55.56;100373.72;5043442;28;5158;-76
2023/06/28 10:03:10;;;;;;;;;;;;;;;20.06;55.43;100365.50;5060235;28;4582;-76
2023/06/28 10:05:36;;;;;;;;;;;;;;;20.05;55.56;100363.88;5058541;28;4881;-76
2023/06/28 10:08:03;;;;;;;;;;;;;;;20.22;55.36;100365.38;5046267;28;4856;-76
2023/06/28 10:10:29;;;;;;;;;;;;;;;20.14;55.61;100366.78;5060182;28;4646;-77
2023/06/28 10:12:56;;;;;;;;;;;;;;;20.12;55.75;100364.38;5046867;28;5429;-76
2023/06/28 10:15:23;;;;;;;;;;;;;;;20.07;55.70;100358.94;5045875;28;5244;-77
2023/06/28 10:17:49;;;;;;;;;;;;;;;20.12;55.73;100369.03;5061699;28;4382;-78
2023/06/28 10:20:16;;;;;;;;;;;;;;;20.13;55.84;100359.69;5044896;28;5511;-79
2023/06/28 10:22:42;;;;;;;;;;;;;;;20.13;55.96;100356.97;5043976;28;5187;-78
2023/06/28 10:25:09;;;;;;;;;;;;;;;20.10;55.87;100357.53;5046030;28;5423;-78
2023/06/28 10:27:36;;;;;;;;;;;;;;;20.11;55.58;100349.03;5044355;28;5312;-76
2023/06/28 10:30:02;;;;;;;;;;;;;;;20.14;56.05;100355.84;5044134;28;4534;-77
2023/06/28 10:32:29;;;;;;;;;;;;;;;20.16;55.89;100356.38;5045253;28;4569;-76
2023/06/28 10:34:55;;;;;;;;;;;;;;;20.14;55.85;100355.84;5044938;28;5341;-78
2023/06/28 10:37:22;;;;;;;;;;;;;;;20.12;55.96;100350.69;5043187;28;4990;-76
2023/06/28 10:39:49;;;;;;;;;;;;;;;20.11;56.11;100351.78;5046069;28;5355;-76
2023/06/28 10:42:15;;;;;;;;;;;;;;;20.16;56.13;100346.25;5043981;28;4486;-79
2023/06/28 10:44:42;;;;;;;;;;;;;;;20.15;56.02;100341.09;5043546;28;4712;-79
2023/06/28 10:47:09;;;;;;;;;;;;;;;20.13;55.85;100346.84;5043662;28;4552;-77
2023/06/28 10:49:35;;;;;;;;;;;;;;;20.13;55.89;100357.78;5045277;28;4730;-78
2023/06/28 10:52:02;;;;;;;;;;;;;;;20.16;56.20;100340.00;5045071;28;4608;-76
2023/06/28 10:54:28;;;;;;;;;;;;;;;20.17;56.25;100350.63;5043987;28;4651;-76
2023/06/28 10:56:58;;;;;;;;;;;;;;;20.15;56.09;100350.13;5045535;28;5384;-78
2023/06/28 10:59:25;;;;;;;;;;;;;;;20.16;56.25;100343.53;5039903;28;5205;-75
2023/06/28 11:01:52;;;;;;;;;;;;;;;20.21;55.92;100345.41;5061583;28;4548;-76
2023/06/28 11:04:19;;;;;;;;;;;;;;;20.19;56.02;100342.97;5043813;28;4632;-77
2023/06/28 11:06:46;;;;;;;;;;;;;;;20.19;56.39;100342.97;5044111;28;4703;-78
2023/06/28 11:09:14;;;;;;;;;;;;;;;20.19;56.21;100348.41;5059651;28;5481;-77
2023/06/28 11:11:41;;;;;;;;;;;;;;;20.21;56.13;100334.47;5043495;28;5558;-76
2023/06/28 11:14:08;;;;;;;;;;;;;;;20.23;55.94;100337.72;5044251;28;4710;-75
2023/06/28 11:16:34;;;;;;;;;;;;;;;20.28;56.25;100340.41;5040755;28;5339;-78
2023/06/28 11:19:01;;;;;;;;;;;;;;;20.27;56.41;100343.44;5046361;28;5382;-76
2023/06/28 11:21:27;;;;;;;;;;;;;;;20.26;56.26;100347.25;5043869;28;5360;-76
2023/06/28 11:23:54;;;;;;;;;;;;;;;20.27;56.39;100344.25;5045135;28;4805;-77
2023/06/28 11:26:21;;;;;;;;;;;;;;;20.26;56.38;100336.31;5043831;28;5239;-77
2023/06/28 11:28:47;;;;;;;;;;;;;;;20.29;56.46;100339.28;5044060;28;4652;-75
2023/06/28 11:31:14;;;;;;;;;;;;;;;20.28;56.36;100337.66;5044756;28;4559;-78
2023/06/28 11:33:40;;;;;;;;;;;;;;;20.32;56.73;100335.97;5058002;28;4440;-77
2023/06/28 11:36:07;;;;;;;;;;;;;;;20.30;56.76;100340.94;5044782;28;5223;-78
2023/06/28 11:38:33;;;;;;;;;;;;;;;20.33;56.76;100337.63;5042090;28;4403;-76
2023/06/28 11:41:00;;;;;;;;;;;;;;;20.35;57.14;100335.44;5044586;28;4497;-78
2023/06/28 11:43:27;;;;;;;;;;;;;;;20.33;57.19;100332.16;5043805;28;5087;-75
2023/06/28 11:45:53;;;;;;;;;;;;;;;20.35;56.97;100329.97;5041826;28;5351;-76
2023/06/28 11:48:20;;;;;;;;;;;;;;;20.37;57.23;100326.91;5043140;28;5447;-77
2023/06/28 11:50:46;;;;;;;;;;;;;;;20.37;57.61;100319.53;5042543;28;5299;-76
2023/06/28 11:53:13;;;;;;;;;;;;;;;20.40;57.12;100323.59;5044382;28;4612;-75
2023/06/28 11:55:39;;;;;;;;;;;;;;;20.38;57.66;100326.63;5042124;28;5014;-76
2023/06/28 11:58:06;;;;;;;;;;;;;;;20.38;57.53;100321.16;5044320;28;4851;-75
2023/06/28 12:00:32;;;;;;;;;;;;;;;20.37;57.19;100330.47;5054881;28;4756;-77
2023/06/28 12:02:59;;;;;;;;;;;;;;;20.39;57.02;100324.72;5042122;28;4832;-78
2023/06/28 12:05:26;;;;;;;;;;;;;;;20.38;56.93;100318.44;5042839;28;5014;-77
2023/06/28 12:07:53;;;;;;;;;;;;;;;20.40;56.89;100318.13;5044621;28;5386;-76
2023/06/28 12:10:20;;;;;;;;;;;;;;;20.42;56.99;100318.66;5043976;28;4687;-77
2023/06/28 12:12:46;;;;;;;;;;;;;;;20.43;57.02;100314.81;5041909;28;5311;-78
2023/06/28 12:15:13;;;;;;;;;;;;;;;20.45;57.24;100317.28;5041057;28;4849;-76
2023/06/28 12:17:40;;;;;;;;;;;;;;;20.41;57.46;100315.13;5042712;28;5319;-76
2023/06/28 12:20:06;;;;;;;;;;;;;;;20.44;57.01;100310.97;5043995;28;4736;-78
2023/06/28 12:22:33;;;;;;;;;;;;;;;20.45;57.08;100309.88;5040854;28;4819;-76
2023/06/28 12:24:59;;;;;;;;;;;;;;;20.44;57.55;100310.97;5044888;28;5432;-78
2023/06/28 12:27:26;;;;;;;;;;;;;;;20.46;57.60;100311.50;5042344;28;5426;-78
2023/06/28 12:29:52;;;;;;;;;;;;;;;20.47;57.84;100318.59;5040891;28;4672;-76
2023/06/28 12:32:19;;;;;;;;;;;;;;;20.47;57.95;100306.81;5042942;28;5299;-78
2023/06/28 12:34:45;;;;;;;;;;;;;;;20.50;57.75;100300.78;5074451;28;5575;-77
2023/06/28 12:37:12;;;;;;;;;;;;;;;20.50;58.27;100303.50;5043359;28;5032;-76
2023/06/28 12:39:39;;;;;;;;;;;;;;;20.50;58.14;100300.78;5041378;28;4636;-77
2023/06/28 12:42:05;;;;;;;;;;;;;;;20.53;57.95;100297.47;5059339;28;4871;-78
2023/06/28 12:44:32;;;;;;;;;;;;;;;20.53;58.23;100300.22;5042272;28;5581;-74